METAR Data

Data at: 2318 UTC 26 Feb 2020

METAR for:KBID (Block Island Arpt, RI, US)
Text:KBID 262316Z AUTO 07009KT 10SM BKN003 OVC007 06/05 A2991 RMK AO2 CIG 002V006
Temperature: 6.0°C ( 43°F)
Dewpoint: 5.0°C ( 41°F) [RH = 93%]
Pressure (altimeter):29.91 inches Hg (1013.0 mb)
Winds:from the ENE (70 degrees) at 10 MPH (9 knots; 4.6 m/s)
Visibility:10 or more sm (16+ km)
Ceiling:300 feet AGL
Clouds: broken clouds at 300 feet AGL, overcast cloud deck at 700 feet AGL
QC Flag:automated observation with no human augmentation